Time;durP1;ratioP1;P1;durP2;ratioP2;P2;SDS_P1;SDS_P2;PMS_P1;PMS_P2;Temp;Humidity;BMP_temperature;BMP_pressure;BME280_temperature;BME280_humidity;BME280_pressure;Samples;Min_cycle;Max_cycle;Signal;HPM_P1;HPM_P2
2024/02/06 00:00:07;;;;;;;13.50;8.40;;;8.60;99.90;;;;;;5056855;28;20207;-81
2024/02/06 00:02:34;;;;;;;16.73;8.53;;;8.50;99.90;;;;;;5052374;28;20203;-80
2024/02/06 00:05:02;;;;;;;13.60;8.50;;;8.60;1.00;;;;;;5051962;28;20204;-81
2024/02/06 00:07:29;;;;;;;14.97;7.73;;;8.50;1.00;;;;;;5057104;28;20218;-82
2024/02/06 00:09:55;;;;;;;16.10;8.20;;;8.50;11.40;;;;;;5044083;28;20203;-81
2024/02/06 00:12:22;;;;;;;12.77;7.37;;;8.60;99.90;;;;;;5046041;28;20552;-81
2024/02/06 00:14:49;;;;;;;13.43;7.67;;;8.60;99.90;;;;;;5042669;28;20224;-82
2024/02/06 00:17:16;;;;;;;16.30;7.83;;;8.60;99.90;;;;;;5041935;28;20234;-81
2024/02/06 00:19:42;;;;;;;15.33;7.77;;;8.60;99.90;;;;;;5047234;28;20605;-81
2024/02/06 00:22:11;;;;;;;13.83;8.07;;;8.60;1.00;;;;;;5041630;28;20275;-81
2024/02/06 00:24:38;;;;;;;14.10;8.13;;;8.60;1.00;;;;;;5045028;28;20200;-82
2024/02/06 00:27:05;;;;;;;12.60;8.43;;;8.80;99.90;;;;;;5044429;28;20223;-82
2024/02/06 00:29:31;;;;;;;13.60;7.10;;;8.50;1.00;;;;;;5043854;28;20585;-80
2024/02/06 00:31:58;;;;;;;12.50;7.30;;;8.50;99.90;;;;;;5045913;28;20206;-80
2024/02/06 00:34:25;;;;;;;11.90;7.10;;;8.40;99.90;;;;;;5046118;28;20587;-82
2024/02/06 00:36:52;;;;;;;12.27;6.63;;;8.40;1.00;;;;;;5048056;28;20596;-82
2024/02/06 00:39:20;;;;;;;11.67;6.53;;;8.40;99.90;;;;;;5046485;28;20282;-78
2024/02/06 00:41:47;;;;;;;9.20;5.80;;;8.40;99.90;;;;;;5050693;28;20554;-81
2024/02/06 00:44:13;;;;;;;11.23;5.60;;;8.40;99.90;;;;;;5046625;28;20195;-80
2024/02/06 00:46:40;;;;;;;9.93;6.03;;;8.30;1.00;;;;;;5050728;28;20227;-81
2024/02/06 00:49:07;;;;;;;9.60;5.87;;;8.30;1.00;;;;;;5049272;28;20564;-81
2024/02/06 00:51:34;;;;;;;9.87;5.53;;;8.30;1.00;;;;;;5049164;28;20203;-80
2024/02/06 00:54:01;;;;;;;8.90;4.70;;;8.50;1.00;;;;;;5048822;28;20211;-82
2024/02/06 00:56:29;;;;;;;12.27;5.87;;;8.30;1.00;;;;;;5050501;28;20205;-82
2024/02/06 00:58:56;;;;;;;9.20;4.80;;;8.20;99.90;;;;;;5048362;28;20202;-82
2024/02/06 01:01:23;;;;;;;11.37;5.40;;;8.20;99.90;;;;;;5055331;28;20202;-82
2024/02/06 01:03:49;;;;;;;8.43;5.30;;;8.20;99.90;;;;;;5047923;28;20213;-80
2024/02/06 01:06:16;;;;;;;10.50;5.83;;;8.20;99.90;;;;;;5050172;28;20214;-81
2024/02/06 01:08:43;;;;;;;10.27;5.40;;;8.20;99.90;;;;;;5045206;28;20219;-81
2024/02/06 01:11:10;;;;;;;7.67;5.63;;;8.20;99.90;;;;;;5045040;28;20211;-80
2024/02/06 01:13:38;;;;;;;11.70;5.73;;;8.40;99.90;;;;;;5040955;28;20203;-81
2024/02/06 01:16:07;;;;;;;7.23;5.00;;;8.20;99.90;;;;;;5044521;28;20597;-81
2024/02/06 01:18:34;;;;;;;7.57;5.27;;;8.20;99.90;;;;;;5038524;28;20227;-82
2024/02/06 01:21:01;;;;;;;8.73;5.33;;;8.20;99.90;;;;;;5045260;28;20211;-80
2024/02/06 01:23:30;;;;;;;9.73;5.70;;;8.10;99.90;;;;;;5043732;28;20210;-83
2024/02/06 01:25:57;;;;;;;8.00;4.73;;;8.10;99.90;;;;;;5044107;28;20197;-81
2024/02/06 01:28:24;;;;;;;10.53;6.07;;;8.10;99.90;;;;;;5043384;28;20226;-82
2024/02/06 01:30:52;;;;;;;8.97;5.23;;;8.10;99.90;;;;;;5045816;28;20206;-81
2024/02/06 01:33:18;;;;;;;9.00;5.63;;;8.10;99.90;;;;;;5046458;28;20700;-81
2024/02/06 01:35:45;;;;;;;8.20;5.47;;;8.10;99.90;;;;;;5043543;28;20218;-81
2024/02/06 01:38:15;;;;;;;9.07;5.50;;;8.10;99.90;;;;;;5045967;28;20592;-80
2024/02/06 01:40:42;;;;;;;10.10;5.83;;;8.20;99.90;;;;;;5046609;28;20236;-81
2024/02/06 01:43:09;;;;;;;8.37;5.50;;;8.10;99.90;;;;;;5047219;28;20229;-82
2024/02/06 01:45:36;;;;;;;8.80;6.10;;;8.10;99.90;;;;;;5046148;28;20196;-82
2024/02/06 01:48:05;;;;;;;10.60;6.37;;;8.60;99.90;;;;;;5046479;28;20257;-81
2024/02/06 01:50:32;;;;;;;10.73;5.97;;;8.10;99.90;;;;;;5044789;28;20203;-82
2024/02/06 01:52:59;;;;;;;11.53;6.90;;;8.20;99.90;;;;;;5047031;28;20717;-80
2024/02/06 01:55:26;;;;;;;11.33;6.80;;;8.20;99.90;;;;;;5046875;28;20227;-81
2024/02/06 01:57:53;;;;;;;11.60;7.23;;;8.20;99.90;;;;;;5054177;28;20246;-82
2024/02/06 02:00:20;;;;;;;14.83;8.07;;;8.30;99.90;;;;;;5054246;28;20213;-82
2024/02/06 02:02:48;;;;;;;14.27;9.37;;;8.50;99.90;;;;;;5041864;28;20200;-83
2024/02/06 02:05:17;;;;;;;13.90;8.13;;;8.30;99.90;;;;;;5046854;28;20683;-81
2024/02/06 02:07:45;;;;;;;14.73;8.20;;;8.30;99.90;;;;;;5049786;28;20747;-82
2024/02/06 02:10:11;;;;;;;14.33;8.50;;;8.20;99.90;;;;;;5041979;28;20449;-80
2024/02/06 02:12:40;;;;;;;17.40;9.00;;;8.30;99.90;;;;;;5042420;28;20211;-80
2024/02/06 02:15:08;;;;;;;15.33;8.90;;;8.30;99.90;;;;;;5038443;28;20225;-81
2024/02/06 02:17:34;;;;;;;19.23;9.00;;;8.30;99.90;;;;;;5049308;28;20258;-81
2024/02/06 02:20:01;;;;;;;17.37;8.77;;;8.30;99.90;;;;;;5045299;28;20199;-80
2024/02/06 02:22:29;;;;;;;15.73;9.60;;;8.40;99.90;;;;;;5051728;28;20211;-80
2024/02/06 02:24:56;;;;;;;15.73;9.13;;;8.40;99.90;;;;;;5046407;28;20821;-82
2024/02/06 02:27:23;;;;;;;14.23;8.37;;;8.40;99.90;;;;;;5044602;28;20246;-81
2024/02/06 02:29:55;;;;;;;16.30;9.00;;;8.40;99.90;;;;;;5044592;28;20220;-83
2024/02/06 02:32:22;;;;;;;15.10;8.40;;;8.40;82.50;;;;;;5048894;28;20267;-82
2024/02/06 02:34:49;;;;;;;13.70;8.47;;;8.50;1.00;;;;;;5048477;28;20214;-81
2024/02/06 02:37:16;;;;;;;14.40;8.83;;;8.50;1.00;;;;;;5048037;28;20228;-81
2024/02/06 02:39:44;;;;;;;15.17;9.37;;;8.50;1.00;;;;;;5046191;28;20195;-83
2024/02/06 02:42:11;;;;;;;15.83;9.20;;;8.50;1.00;;;;;;5049820;28;20202;-81
2024/02/06 02:44:37;;;;;;;13.77;9.27;;;8.50;1.00;;;;;;5049625;28;20204;-81
2024/02/06 02:47:04;;;;;;;15.27;10.40;;;8.50;99.90;;;;;;5054637;28;20222;-82
2024/02/06 02:49:31;;;;;;;18.57;9.67;;;8.60;99.90;;;;;;5050672;28;20206;-81
2024/02/06 02:51:58;;;;;;;14.67;9.80;;;8.60;99.90;;;;;;5052948;28;20209;-82
2024/02/06 02:54:27;;;;;;;14.97;9.80;;;8.70;1.00;;;;;;5055633;28;20298;-82
2024/02/06 02:56:56;;;;;;;17.73;10.80;;;8.70;1.00;;;;;;5053075;28;20224;-80
2024/02/06 02:59:22;;;;;;;16.07;9.67;;;8.70;99.90;;;;;;5053202;28;20206;-81
2024/02/06 03:01:48;;;;;;;16.40;9.80;;;8.70;1.00;;;;;;5052683;28;20207;-78
2024/02/06 03:04:15;;;;;;;16.93;10.93;;;8.70;1.00;;;;;;5054812;28;20546;-82
2024/02/06 03:06:44;;;;;;;14.87;9.07;;;8.70;99.90;;;;;;5056105;28;20223;-79
2024/02/06 03:09:13;;;;;;;14.77;9.33;;;9.10;99.90;;;;;;5047768;28;20222;-81
2024/02/06 03:11:39;;;;;;;15.00;9.10;;;8.60;1.00;;;;;;5050662;28;20199;-81
2024/02/06 03:14:07;;;;;;;17.07;9.17;;;8.70;99.90;;;;;;5042910;28;20652;-79
2024/02/06 03:16:35;;;;;;;14.50;7.80;;;8.70;99.90;;;;;;5048960;28;20231;-80
2024/02/06 03:19:02;;;;;;;11.67;8.03;;;8.60;1.00;;;;;;5043963;28;20254;-82
2024/02/06 03:21:29;;;;;;;14.80;8.23;;;8.70;1.00;;;;;;5045559;28;20207;-82
2024/02/06 03:23:56;;;;;;;14.93;8.37;;;8.70;99.90;;;;;;5047920;28;20208;-80
2024/02/06 03:26:22;;;;;;;15.13;8.57;;;9.20;99.90;;;;;;5043201;28;20203;-81
2024/02/06 03:28:49;;;;;;;13.53;8.87;;;8.70;99.90;;;;;;5042540;28;20200;-82
2024/02/06 03:31:17;;;;;;;12.20;7.53;;;8.80;1.00;;;;;;5042274;28;20203;-82
2024/02/06 03:33:44;;;;;;;14.03;7.77;;;8.70;1.00;;;;;;5053825;28;20202;-82
2024/02/06 03:36:11;;;;;;;12.20;7.73;;;8.70;1.00;;;;;;5052545;28;20245;-81
2024/02/06 03:38:38;;;;;;;13.53;8.03;;;8.70;1.00;;;;;;5042021;28;20237;-82
2024/02/06 03:41:05;;;;;;;13.57;8.10;;;8.60;1.00;;;;;;5044511;28;20214;-81
2024/02/06 03:43:32;;;;;;;14.20;8.40;;;8.60;1.00;;;;;;5044731;28;20835;-79
2024/02/06 03:45:59;;;;;;;13.67;8.13;;;8.80;99.90;;;;;;5045417;28;20211;-81
2024/02/06 03:48:27;;;;;;;12.00;7.70;;;8.60;99.90;;;;;;5050678;28;20230;-80
2024/02/06 03:50:54;;;;;;;12.27;7.67;;;8.60;76.20;;;;;;5046833;28;20226;-81
2024/02/06 03:53:20;;;;;;;11.83;8.67;;;8.60;1.00;;;;;;5044947;28;20211;-80
2024/02/06 03:55:46;;;;;;;13.07;7.87;;;8.70;80.00;;;;;;5049767;28;20226;-82
2024/02/06 03:58:13;;;;;;;15.27;8.63;;;8.70;1.00;;;;;;5051894;28;20210;-80
2024/02/06 04:00:41;;;;;;;13.70;8.40;;;8.60;99.90;;;;;;5049384;28;20199;-78
2024/02/06 04:03:07;;;;;;;15.70;8.60;;;8.60;99.90;;;;;;5051839;28;20696;-81
2024/02/06 04:05:36;;;;;;;14.37;7.97;;;8.60;99.90;;;;;;5050519;28;20302;-79
2024/02/06 04:08:03;;;;;;;13.07;7.47;;;8.70;99.90;;;;;;5051050;28;20223;-82
2024/02/06 04:10:29;;;;;;;13.17;7.93;;;8.70;11.70;;;;;;5052265;28;20218;-81
2024/02/06 04:12:56;;;;;;;10.70;7.07;;;8.70;1.00;;;;;;5050947;28;20206;-82
2024/02/06 04:15:23;;;;;;;11.27;6.83;;;8.70;1.00;;;;;;5051020;28;20216;-81
2024/02/06 04:17:50;;;;;;;10.70;7.10;;;8.70;1.00;;;;;;5044545;28;20231;-81
2024/02/06 04:20:16;;;;;;;13.83;6.53;;;8.70;1.00;;;;;;5045486;28;20195;-82
2024/02/06 04:22:45;;;;;;;11.93;7.13;;;8.70;1.00;;;;;;5042916;28;20211;-81
2024/02/06 04:25:12;;;;;;;10.97;6.77;;;9.20;1.00;;;;;;5040998;28;20214;-81
2024/02/06 04:27:39;;;;;;;14.47;6.67;;;8.80;99.90;;;;;;5049386;28;20729;-82
2024/02/06 04:30:07;;;;;;;11.10;6.00;;;8.80;1.00;;;;;;5043757;28;20202;-80
2024/02/06 04:32:34;;;;;;;11.30;6.57;;;8.90;1.00;;;;;;5042402;28;20291;-83
2024/02/06 04:35:01;;;;;;;9.83;6.37;;;8.90;99.90;;;;;;5047715;28;20204;-80
2024/02/06 04:37:27;;;;;;;9.63;5.70;;;8.80;1.00;;;;;;5043367;28;20310;-82
2024/02/06 04:39:55;;;;;;;8.93;5.77;;;8.80;1.00;;;;;;5041221;28;20694;-83
2024/02/06 04:42:22;;;;;;;10.30;6.10;;;8.80;1.00;;;;;;5045190;28;20203;-82
2024/02/06 04:44:49;;;;;;;9.70;5.80;;;9.00;1.00;;;;;;5046890;28;20204;-81
2024/02/06 04:47:16;;;;;;;9.27;6.03;;;8.80;1.00;;;;;;5051964;28;20225;-78
2024/02/06 04:49:42;;;;;;;11.53;6.00;;;8.80;1.00;;;;;;5045346;28;20196;-83
2024/02/06 04:52:09;;;;;;;8.67;5.87;;;8.90;1.00;;;;;;5047779;28;20206;-82
2024/02/06 04:54:36;;;;;;;11.37;6.40;;;8.90;1.00;;;;;;5047072;28;20199;-82
2024/02/06 04:57:05;;;;;;;10.73;6.53;;;9.10;25.90;;;;;;5049419;28;20318;-83
2024/02/06 04:59:33;;;;;;;9.23;5.97;;;8.80;1.00;;;;;;5050453;28;20209;-81
2024/02/06 05:01:59;;;;;;;8.80;5.97;;;8.80;99.90;;;;;;5051574;28;20222;-82
2024/02/06 05:04:26;;;;;;;8.27;5.80;;;8.80;99.90;;;;;;5048790;28;20606;-81
2024/02/06 05:06:53;;;;;;;9.93;6.07;;;8.80;99.90;;;;;;5049131;28;20227;-82
2024/02/06 05:09:20;;;;;;;10.67;6.30;;;9.00;1.00;;;;;;5051054;28;20211;-83
2024/02/06 05:11:47;;;;;;;10.33;6.60;;;8.80;99.90;;;;;;5047896;28;20199;-82
2024/02/06 05:14:15;;;;;;;10.97;6.30;;;8.80;99.90;;;;;;5050591;28;20210;-83
2024/02/06 05:16:42;;;;;;;13.83;6.30;;;8.80;1.00;;;;;;5053175;28;20716;-82
2024/02/06 05:19:13;;;;;;;8.27;6.13;;;8.80;99.90;;;;;;5040226;28;20214;-83
2024/02/06 05:21:39;;;;;;;12.07;6.80;;;8.80;99.90;;;;;;5048121;28;20210;-81
2024/02/06 05:24:06;;;;;;;12.00;6.93;;;8.80;1.00;;;;;;5038644;28;20208;-82
2024/02/06 05:26:33;;;;;;;14.00;7.10;;;8.80;99.90;;;;;;5041620;28;20230;-81
2024/02/06 05:29:00;;;;;;;22.70;7.53;;;8.80;99.90;;;;;;5044397;28;20237;-83
2024/02/06 05:31:28;;;;;;;13.33;6.60;;;8.80;99.90;;;;;;5039578;28;20253;-81
2024/02/06 05:33:55;;;;;;;11.70;7.17;;;8.80;99.90;;;;;;5040575;28;20857;-82
2024/02/06 05:36:22;;;;;;;16.50;9.00;;;8.90;1.00;;;;;;5046033;28;20231;-82
2024/02/06 05:38:49;;;;;;;11.80;7.33;;;8.90;1.00;;;;;;5040073;28;20477;-82
2024/02/06 05:41:17;;;;;;;9.27;6.43;;;8.90;1.00;;;;;;5046630;28;20199;-83
2024/02/06 05:43:44;;;;;;;12.27;6.80;;;8.90;1.00;;;;;;5041863;28;20212;-81
2024/02/06 05:46:11;;;;;;;11.30;7.10;;;8.90;71.20;;;;;;5042478;28;20203;-82
2024/02/06 05:48:39;;;;;;;9.27;6.63;;;9.00;99.90;;;;;;5041348;28;20247;-83
2024/02/06 05:51:06;;;;;;;13.93;6.97;;;8.90;99.90;;;;;;5045042;28;20203;-82
2024/02/06 05:53:33;;;;;;;11.63;6.50;;;8.90;99.90;;;;;;5045106;28;20209;-81
2024/02/06 05:56:00;;;;;;;12.23;8.17;;;8.80;1.00;;;;;;5050263;28;20225;-82
2024/02/06 05:58:28;;;;;;;12.77;6.97;;;8.80;99.90;;;;;;5046960;28;20222;-80
2024/02/06 06:00:54;;;;;;;12.77;6.27;;;8.90;1.00;;;;;;5046939;28;20227;-81
2024/02/06 06:03:21;;;;;;;9.77;6.20;;;8.90;1.00;;;;;;5051253;28;20546;-84
2024/02/06 06:05:49;;;;;;;12.80;7.30;;;8.90;99.90;;;;;;5046134;28;20285;-81
2024/02/06 06:08:17;;;;;;;11.83;7.00;;;9.00;1.10;;;;;;5049060;28;20259;-82
2024/02/06 06:10:44;;;;;;;12.63;6.90;;;9.10;49.60;;;;;;5046450;28;20226;-81
2024/02/06 06:13:11;;;;;;;12.97;6.60;;;9.00;1.00;;;;;;5044279;28;20195;-81
2024/02/06 06:15:37;;;;;;;12.17;6.90;;;9.10;1.00;;;;;;5051242;28;20209;-80
2024/02/06 06:18:06;;;;;;;9.83;6.70;;;9.10;99.90;;;;;;5048084;28;20233;-82
2024/02/06 06:20:33;;;;;;;11.37;6.67;;;9.10;35.20;;;;;;5050141;28;20207;-81
2024/02/06 06:23:01;;;;;;;11.40;6.87;;;9.40;1.00;;;;;;5048597;28;20207;-82
2024/02/06 06:25:29;;;;;;;14.23;6.80;;;9.20;1.00;;;;;;5049818;28;20586;-81
2024/02/06 06:27:56;;;;;;;10.27;6.40;;;9.20;1.00;;;;;;5045515;28;20230;-80
2024/02/06 06:30:23;;;;;;;9.53;6.43;;;9.10;1.00;;;;;;5035532;28;20235;-81
2024/02/06 06:32:50;;;;;;;10.80;6.00;;;9.20;1.00;;;;;;5037259;28;20208;-82
2024/02/06 06:35:17;;;;;;;13.27;6.70;;;9.20;1.00;;;;;;5039501;28;20199;-82
2024/02/06 06:37:44;;;;;;;12.40;6.10;;;9.20;1.00;;;;;;5047173;28;20222;-81
2024/02/06 06:40:13;;;;;;;9.93;6.67;;;9.10;1.00;;;;;;5044359;28;20199;-82
2024/02/06 06:42:40;;;;;;;10.37;6.30;;;9.10;1.00;;;;;;5044618;28;20658;-82
2024/02/06 06:45:08;;;;;;;12.57;7.03;;;9.20;1.00;;;;;;5045773;28;20210;-83
2024/02/06 06:47:35;;;;;;;9.83;6.20;;;9.10;54.00;;;;;;5046669;28;20341;-82
2024/02/06 06:50:02;;;;;;;11.00;6.23;;;9.10;99.90;;;;;;5043539;28;20258;-82
2024/02/06 06:52:29;;;;;;;10.10;5.97;;;9.10;1.00;;;;;;5043879;28;20215;-82
2024/02/06 06:54:57;;;;;;;11.50;6.47;;;9.10;1.00;;;;;;5044728;28;20211;-80
2024/02/06 06:57:25;;;;;;;14.10;6.50;;;9.00;64.10;;;;;;5051517;28;20623;-82
2024/02/06 06:59:51;;;;;;;11.80;6.73;;;9.00;99.90;;;;;;5048897;28;20207;-82
2024/02/06 07:02:18;;;;;;;10.63;6.37;;;9.00;52.60;;;;;;5052861;28;20208;-81
2024/02/06 07:04:45;;;;;;;13.07;6.57;;;9.10;1.00;;;;;;5054386;28;20206;-79
2024/02/06 07:07:12;;;;;;;9.53;5.67;;;9.10;1.00;;;;;;5053591;28;20222;-80
2024/02/06 07:09:40;;;;;;;7.60;5.63;;;9.10;1.00;;;;;;5043789;28;20664;-79
2024/02/06 07:12:07;;;;;;;9.33;5.63;;;9.10;1.00;;;;;;5043674;28;20200;-81
2024/02/06 07:14:37;;;;;;;9.50;5.10;;;9.10;1.00;;;;;;5048669;28;20708;-80
2024/02/06 07:17:05;;;;;;;7.37;4.47;;;9.20;99.90;;;;;;5048493;28;20253;-82
2024/02/06 07:19:32;;;;;;;7.50;4.63;;;9.20;68.90;;;;;;5048483;28;20212;-80
2024/02/06 07:21:59;;;;;;;9.67;5.10;;;9.30;1.00;;;;;;5049821;28;20199;-82
2024/02/06 07:24:26;;;;;;;10.43;4.83;;;9.30;1.00;;;;;;5048171;28;20298;-83
2024/02/06 07:26:53;;;;;;;9.90;4.93;;;9.40;1.00;;;;;;5051039;28;20285;-80
2024/02/06 07:29:20;;;;;;;7.83;4.83;;;9.40;99.90;;;;;;5049428;28;20204;-83
2024/02/06 07:31:48;;;;;;;6.87;4.70;;;9.40;99.90;;;;;;5042035;28;20225;-80
2024/02/06 07:34:15;;;;;;;6.47;5.20;;;9.40;1.00;;;;;;5045137;28;20547;-79
2024/02/06 07:36:42;;;;;;;6.33;4.93;;;9.30;1.00;;;;;;5043203;28;20354;-80
2024/02/06 07:39:09;;;;;;;10.80;4.70;;;9.30;1.00;;;;;;5051699;28;20203;-81
2024/02/06 07:41:36;;;;;;;10.37;5.20;;;9.30;1.00;;;;;;5046338;28;20200;-79
2024/02/06 07:44:03;;;;;;;6.67;4.93;;;9.40;99.90;;;;;;5045232;28;20657;-79
2024/02/06 07:46:30;;;;;;;10.10;5.53;;;9.40;1.00;;;;;;5048528;28;20202;-81
2024/02/06 07:48:59;;;;;;;8.47;4.83;;;9.40;1.00;;;;;;5043796;28;20638;-80
2024/02/06 07:51:26;;;;;;;8.23;4.83;;;9.40;1.00;;;;;;5047946;28;20238;-80
2024/02/06 07:53:54;;;;;;;10.70;5.17;;;9.40;1.00;;;;;;5047561;28;20729;-80
2024/02/06 07:56:20;;;;;;;6.17;4.30;;;9.40;1.00;;;;;;5053072;28;20227;-80
2024/02/06 07:58:47;;;;;;;7.27;4.53;;;9.50;1.00;;;;;;5050328;28;20209;-81
2024/02/06 08:01:14;;;;;;;7.53;4.63;;;9.40;1.00;;;;;;5051392;28;20206;-80
2024/02/06 08:03:41;;;;;;;10.37;6.70;;;9.40;1.00;;;;;;5049949;28;20203;-80
2024/02/06 08:06:09;;;;;;;11.23;5.10;;;9.40;99.90;;;;;;5051809;28;20179;-80
2024/02/06 08:08:36;;;;;;;6.67;4.37;;;9.40;1.00;;;;;;5052136;28;20241;-77
2024/02/06 08:11:03;;;;;;;7.67;4.67;;;9.40;1.00;;;;;;5042003;28;20203;-83
2024/02/06 08:13:30;;;;;;;9.27;5.00;;;9.50;1.00;;;;;;5046902;28;20207;-83
2024/02/06 08:15:57;;;;;;;8.17;4.77;;;9.50;99.90;;;;;;5047134;28;20207;-79
2024/02/06 08:18:24;;;;;;;6.97;4.37;;;9.50;1.00;;;;;;5045024;28;20229;-80
2024/02/06 08:20:51;;;;;;;8.40;3.90;;;9.50;99.90;;;;;;5051044;28;20206;-81
2024/02/06 08:23:19;;;;;;;5.57;3.97;;;9.50;1.00;;;;;;5044728;28;20195;-81
2024/02/06 08:25:45;;;;;;;6.20;4.23;;;9.60;1.00;;;;;;5048098;28;20407;-82
2024/02/06 08:28:12;;;;;;;8.03;4.27;;;9.60;99.90;;;;;;5046422;28;20218;-80
2024/02/06 08:30:39;;;;;;;4.20;3.60;;;9.60;99.90;;;;;;5047162;28;20204;-82
2024/02/06 08:33:06;;;;;;;6.27;3.73;;;9.70;99.90;;;;;;5048358;28;20208;-80
2024/02/06 08:35:33;;;;;;;6.07;3.53;;;9.70;99.90;;;;;;5047250;28;20249;-81
2024/02/06 08:38:00;;;;;;;4.83;3.37;;;9.70;99.90;;;;;;5050179;28;20661;-79
2024/02/06 08:40:28;;;;;;;4.97;3.23;;;9.70;99.90;;;;;;5044665;28;20214;-79
2024/02/06 08:42:54;;;;;;;4.20;3.30;;;9.80;1.00;;;;;;5041870;28;20211;-80
2024/02/06 08:45:22;;;;;;;4.20;3.30;;;9.80;1.00;;;;;;5045607;28;20211;-80
2024/02/06 08:47:48;;;;;;;5.17;3.10;;;9.80;1.00;;;;;;5044756;28;20219;-81
2024/02/06 08:50:15;;;;;;;5.23;3.80;;;9.90;1.00;;;;;;5046979;28;20199;-82
2024/02/06 08:52:42;;;;;;;8.07;3.90;;;9.80;57.60;;;;;;5048483;28;20204;-82
2024/02/06 08:55:10;;;;;;;5.70;3.80;;;9.80;1.00;;;;;;5051851;28;20221;-79
2024/02/06 08:57:38;;;;;;;4.23;3.00;;;9.80;1.00;;;;;;5047177;28;20230;-79
2024/02/06 09:00:11;;;;;;;8.50;3.50;;;9.80;99.90;;;;;;5049807;28;20200;-80
2024/02/06 09:02:38;;;;;;;6.13;4.00;;;9.80;99.90;;;;;;5056001;28;20217;-80
2024/02/06 09:05:05;;;;;;;8.20;3.70;;;9.80;1.00;;;;;;5050820;28;20345;-82
2024/02/06 09:07:32;;;;;;;7.23;4.50;;;9.80;1.00;;;;;;5052288;28;20294;-81
2024/02/06 09:09:59;;;;;;;6.37;4.30;;;9.80;1.00;;;;;;5039650;28;20251;-81
2024/02/06 09:12:27;;;;;;;8.67;4.27;;;9.80;1.00;;;;;;5041928;28;20666;-80
2024/02/06 09:14:56;;;;;;;8.43;4.20;;;9.80;1.00;;;;;;5042542;28;20195;-79
2024/02/06 09:17:23;;;;;;;7.23;4.23;;;9.80;1.00;;;;;;5045174;28;20223;-82
2024/02/06 09:19:50;;;;;;;10.50;4.03;;;9.80;99.90;;;;;;5049111;28;20211;-80
2024/02/06 09:22:16;;;;;;;7.83;4.20;;;9.90;1.00;;;;;;5043043;28;20748;-81
2024/02/06 09:24:43;;;;;;;7.03;4.60;;;9.80;1.00;;;;;;5046923;28;20649;-81
2024/02/06 09:27:10;;;;;;;6.70;4.40;;;9.80;1.00;;;;;;5044360;28;20236;-79
2024/02/06 09:29:37;;;;;;;6.07;3.80;;;9.90;1.00;;;;;;5045878;28;20207;-80
2024/02/06 09:32:05;;;;;;;7.67;4.10;;;9.90;1.00;;;;;;5045990;28;20289;-79
2024/02/06 09:34:32;;;;;;;7.03;4.40;;;9.90;1.00;;;;;;5048787;28;20211;-80
2024/02/06 09:36:59;;;;;;;7.63;4.27;;;9.80;24.30;;;;;;5050166;28;20696;-80
2024/02/06 09:39:26;;;;;;;11.00;4.67;;;9.80;99.90;;;;;;5047862;28;20997;-80
2024/02/06 09:41:58;;;;;;;6.93;4.80;;;10.00;1.00;;;;;;5052690;28;20241;-80
2024/02/06 09:44:28;;;;;;;11.20;4.93;;;9.90;1.00;;;;;;5051234;28;20203;-79
2024/02/06 09:46:59;;;;;;;11.00;5.10;;;9.90;99.90;;;;;;5054008;28;20297;-79
2024/02/06 09:49:28;;;;;;;8.33;4.60;;;9.90;99.90;;;;;;5049432;28;20218;-81
2024/02/06 09:51:55;;;;;;;5.77;4.73;;;9.90;99.90;;;;;;5048853;28;20211;-80
2024/02/06 09:54:26;;;;;;;8.93;4.80;;;10.10;99.90;;;;;;5048482;28;20294;-82
2024/02/06 09:56:54;;;;;;;9.40;5.00;;;10.00;1.00;;;;;;5048661;28;20222;-82
2024/02/06 09:59:23;;;;;;;10.57;5.67;;;10.10;1.00;;;;;;5049998;28;20209;-81
2024/02/06 10:01:52;;;;;;;10.90;5.57;;;10.10;1.00;;;;;;5053254;28;20267;-80
2024/02/06 10:04:21;;;;;;;11.00;5.93;;;10.10;1.00;;;;;;5051552;28;20619;-82
2024/02/06 10:06:49;;;;;;;11.83;5.77;;;10.10;1.00;;;;;;5051110;28;20226;-79
2024/02/06 10:09:18;;;;;;;8.57;5.40;;;10.20;99.90;;;;;;5046078;28;20239;-81
2024/02/06 10:11:45;;;;;;;5.57;4.40;;;10.20;99.90;;;;;;5043909;28;20214;-81
2024/02/06 10:14:13;;;;;;;9.87;4.50;;;10.30;99.90;;;;;;5039078;28;20209;-80
2024/02/06 10:16:41;;;;;;;10.07;4.90;;;10.30;1.00;;;;;;5040393;28;20227;-82
2024/02/06 10:19:08;;;;;;;8.10;4.67;;;10.30;1.00;;;;;;5044293;28;20242;-79
2024/02/06 10:21:35;;;;;;;7.63;5.00;;;10.40;1.00;;;;;;5041892;28;20204;-81
2024/02/06 10:24:05;;;;;;;9.87;4.80;;;10.40;1.00;;;;;;5041149;28;20229;-80
2024/02/06 10:26:32;;;;;;;6.97;4.17;;;10.50;1.00;;;;;;5045949;28;20293;-83
2024/02/06 10:29:06;;;;;;;8.10;4.77;;;10.60;1.00;;;;;;5046336;28;20203;-82
2024/02/06 10:31:33;;;;;;;8.33;4.03;;;10.60;1.00;;;;;;5047008;28;20637;-83
2024/02/06 10:34:11;;;;;;;9.67;3.70;;;10.60;1.00;;;;;;5046385;28;20233;-81
2024/02/06 10:36:38;;;;;;;11.93;4.27;;;10.80;1.00;;;;;;5048029;28;20594;-81
2024/02/06 10:39:08;;;;;;;6.40;3.73;;;10.70;99.90;;;;;;5053739;28;20249;-81
2024/02/06 10:41:35;;;;;;;7.13;3.30;;;10.70;99.90;;;;;;5049276;28;20219;-82
2024/02/06 10:44:10;;;;;;;8.13;3.83;;;10.80;99.90;;;;;;5056616;28;20203;-82
2024/02/06 10:46:37;;;;;;;7.33;3.50;;;10.80;99.90;;;;;;5052086;28;20229;-79
2024/02/06 10:49:04;;;;;;;5.37;2.93;;;10.80;99.90;;;;;;5057658;28;20203;-81
2024/02/06 10:51:32;;;;;;;7.90;3.07;;;10.80;99.90;;;;;;5053253;28;20203;-79
2024/02/06 10:53:59;;;;;;;4.43;2.90;;;10.80;99.90;;;;;;5057202;28;20626;-83
2024/02/06 10:56:29;;;;;;;7.23;3.67;;;11.00;99.90;;;;;;5056963;28;20202;-81
2024/02/06 10:58:58;;;;;;;3.93;2.77;;;10.80;99.90;;;;;;5053457;28;20692;-81
2024/02/06 11:01:30;;;;;;;4.83;3.07;;;10.70;61.90;;;;;;5059568;28;20198;-82
2024/02/06 11:04:02;;;;;;;6.20;3.13;;;10.80;99.90;;;;;;5053661;28;20200;-82
2024/02/06 11:06:35;;;;;;;7.83;3.63;;;10.80;99.90;;;;;;5057035;28;20203;-81
2024/02/06 11:09:04;;;;;;;6.17;2.93;;;10.70;99.90;;;;;;5049725;28;20211;-81
2024/02/06 11:11:33;;;;;;;7.10;3.03;;;10.80;99.90;;;;;;5041934;28;20204;-82
2024/02/06 11:14:02;;;;;;;4.67;3.87;;;10.80;99.90;;;;;;5041066;28;20241;-80
2024/02/06 11:16:34;;;;;;;5.07;2.80;;;10.80;99.90;;;;;;5041932;28;20209;-79
2024/02/06 11:19:06;;;;;;;7.63;3.30;;;10.80;99.90;;;;;;5043352;28;20673;-80
2024/02/06 11:21:39;;;;;;;9.27;3.23;;;10.70;99.90;;;;;;5041581;28;20211;-82
2024/02/06 11:24:07;;;;;;;5.03;3.07;;;10.70;99.90;;;;;;5042573;28;20198;-80
2024/02/06 11:26:35;;;;;;;7.13;3.20;;;10.70;99.90;;;;;;5041083;28;20587;-81
2024/02/06 11:29:06;;;;;;;10.40;3.67;;;10.70;99.90;;;;;;5049017;28;20682;-80
2024/02/06 11:31:35;;;;;;;7.87;3.40;;;10.70;99.90;;;;;;5045116;28;20204;-80
2024/02/06 11:34:11;;;;;;;7.30;3.50;;;10.70;99.90;;;;;;5050053;28;20658;-79
2024/02/06 11:36:38;;;;;;;5.03;3.10;;;10.70;99.90;;;;;;5044401;28;20218;-81
2024/02/06 11:39:08;;;;;;;6.30;4.00;;;10.70;1.00;;;;;;5052391;28;20218;-82
2024/02/06 11:41:36;;;;;;;8.90;3.33;;;10.70;1.00;;;;;;5049739;28;20238;-80
2024/02/06 11:44:10;;;;;;;6.27;4.00;;;10.70;1.00;;;;;;5052526;28;20703;-81
2024/02/06 11:46:44;;;;;;;10.13;3.60;;;10.70;1.00;;;;;;5048242;28;20511;-82
2024/02/06 11:49:12;;;;;;;9.53;4.10;;;10.70;1.00;;;;;;5053275;28;20203;-81
2024/02/06 11:51:39;;;;;;;8.10;4.40;;;10.70;99.90;;;;;;5047906;28;20261;-81
2024/02/06 11:54:13;;;;;;;6.90;3.67;;;10.70;99.90;;;;;;5052716;28;20241;-81
2024/02/06 11:56:42;;;;;;;7.10;3.70;;;10.70;1.00;;;;;;5055757;28;20318;-81
2024/02/06 11:59:09;;;;;;;10.60;4.30;;;10.70;1.00;;;;;;5052107;28;20230;-80
2024/02/06 12:01:36;;;;;;;8.33;3.87;;;10.70;1.00;;;;;;5057033;28;20217;-81
2024/02/06 12:04:04;;;;;;;11.60;4.63;;;10.70;1.00;;;;;;5063603;28;20207;-80
2024/02/06 12:06:31;;;;;;;6.70;4.20;;;10.70;1.00;;;;;;5053413;28;20210;-80
2024/02/06 12:09:02;;;;;;;6.33;4.37;;;10.70;1.00;;;;;;5045123;28;20225;-81
2024/02/06 12:11:35;;;;;;;6.47;4.27;;;10.70;1.00;;;;;;5038337;28;20294;-80
2024/02/06 12:14:04;;;;;;;9.87;4.07;;;10.70;1.00;;;;;;5040119;28;20199;-82
2024/02/06 12:16:31;;;;;;;6.70;4.30;;;10.70;1.00;;;;;;5046623;28;20200;-82
2024/02/06 12:18:59;;;;;;;6.77;4.47;;;10.70;1.00;;;;;;5042043;28;20227;-82
2024/02/06 12:21:26;;;;;;;9.80;4.20;;;10.80;1.00;;;;;;5044892;28;20259;-82
2024/02/06 12:24:02;;;;;;;3.67;3.20;;;10.90;99.90;;;;;;5038442;28;20203;-82
2024/02/06 12:26:29;;;;;;;8.80;3.27;;;11.00;84.20;;;;;;5039245;28;20579;-82
2024/02/06 12:29:02;;;;;;;4.73;3.03;;;11.00;1.00;;;;;;5042278;28;20196;-81
2024/02/06 12:31:31;;;;;;;6.83;3.27;;;11.00;1.00;;;;;;5041257;28;20211;-82
2024/02/06 12:34:00;;;;;;;5.87;2.57;;;11.10;1.00;;;;;;5042083;28;20227;-80
2024/02/06 12:36:27;;;;;;;5.43;2.83;;;11.10;1.00;;;;;;5048678;28;20204;-81
2024/02/06 12:38:54;;;;;;;6.60;3.17;;;11.10;1.00;;;;;;5042446;28;20225;-82
2024/02/06 12:41:22;;;;;;;4.87;3.00;;;11.10;1.00;;;;;;5044985;28;20310;-79
2024/02/06 12:43:51;;;;;;;17.77;3.13;;;11.20;1.00;;;;;;5049708;28;20257;-79
2024/02/06 12:46:18;;;;;;;4.47;2.63;;;11.20;1.00;;;;;;5045859;28;20599;-82
2024/02/06 12:48:49;;;;;;;5.07;2.70;;;11.20;1.00;;;;;;5051176;28;20196;-82
2024/02/06 12:51:17;;;;;;;5.63;2.70;;;11.30;1.00;;;;;;5047454;28;20203;-81
2024/02/06 12:53:44;;;;;;;6.83;2.57;;;11.30;1.00;;;;;;5048084;28;20203;-80
2024/02/06 12:56:12;;;;;;;4.87;2.30;;;11.20;1.00;;;;;;5048535;28;20298;-81